createdAt,value
2019-04-05T00:02:00.306Z,18.53
2019-04-05T00:04:28.081Z,18.63
2019-04-05T00:06:55.790Z,18.73
2019-04-05T00:09:23.575Z,22.13
2019-04-05T00:11:51.389Z,18.23
2019-04-05T00:14:19.186Z,18.43
2019-04-05T00:16:46.992Z,20.97
2019-04-05T00:19:14.743Z,18.70
2019-04-05T00:21:42.518Z,18.87
2019-04-05T00:24:10.322Z,20.07
2019-04-05T00:26:38.121Z,22.10
2019-04-05T00:29:05.900Z,20.13
2019-04-05T00:31:48.767Z,20.63
2019-04-05T00:34:16.548Z,18.27
2019-04-05T00:36:44.304Z,20.23
2019-04-05T00:39:12.113Z,19.77
2019-04-05T00:41:39.949Z,22.73
2019-04-05T00:44:07.751Z,18.80
2019-04-05T00:46:35.587Z,16.80
2019-04-05T00:49:03.325Z,19.87
2019-04-05T00:51:50.571Z,18.13
2019-04-05T00:54:18.375Z,16.43
2019-04-05T00:56:46.163Z,21.03
2019-04-05T00:59:13.934Z,16.13
2019-04-05T01:01:41.735Z,18.13
2019-04-05T01:04:09.496Z,20.70
2019-04-05T01:06:37.490Z,18.60
2019-04-05T01:09:06.888Z,20.57
2019-04-05T01:11:34.755Z,18.67
2019-04-05T01:14:02.540Z,20.20
2019-04-05T01:16:30.281Z,17.37
2019-04-05T01:18:58.069Z,18.17
2019-04-05T01:21:31.338Z,18.57
2019-04-05T01:24:01.867Z,17.40
2019-04-05T01:26:30.776Z,18.47
2019-04-05T01:28:58.589Z,18.93
2019-04-05T01:31:26.430Z,17.47
2019-04-05T01:33:54.217Z,16.33
2019-04-05T01:36:21.988Z,15.10
2019-04-05T01:38:49.759Z,15.43
2019-04-05T01:41:17.763Z,15.40
2019-04-05T01:43:45.547Z,14.63
2019-04-05T01:46:13.360Z,19.67
2019-04-05T01:48:41.137Z,16.90
2019-04-05T01:51:09.060Z,18.37
2019-04-05T01:53:36.951Z,16.23
2019-04-05T01:56:04.802Z,17.80
2019-04-05T01:58:32.593Z,16.83
2019-04-05T02:01:00.416Z,18.13
2019-04-05T02:03:28.215Z,16.77
2019-04-05T02:05:56.015Z,17.03
2019-04-05T02:08:23.758Z,17.13
2019-04-05T02:11:22.077Z,18.50
2019-04-05T02:13:49.814Z,18.93
2019-04-05T02:16:17.595Z,17.70
2019-04-05T02:18:45.383Z,17.53
2019-04-05T02:21:13.344Z,16.30
2019-04-05T02:23:42.170Z,17.60
2019-04-05T02:26:09.984Z,16.83
2019-04-05T02:28:37.743Z,17.27
2019-04-05T02:31:05.592Z,15.47
2019-04-05T02:33:36.585Z,16.77
2019-04-05T02:36:04.478Z,15.90
2019-04-05T02:38:32.177Z,14.67
2019-04-05T02:41:00.968Z,15.20
2019-04-05T02:43:31.487Z,15.77
2019-04-05T02:46:00.610Z,15.93
2019-04-05T02:48:32.841Z,15.07
2019-04-05T02:51:03.440Z,16.27
2019-04-05T02:53:33.644Z,19.67
2019-04-05T02:56:03.186Z,20.03
2019-04-05T02:58:32.950Z,15.13
2019-04-05T03:01:01.745Z,15.77
2019-04-05T03:03:29.604Z,18.03
2019-04-05T03:05:57.383Z,16.03
2019-04-05T03:08:25.327Z,17.90
2019-04-05T03:11:14.160Z,17.23
2019-04-05T03:13:53.552Z,16.23
2019-04-05T03:16:39.548Z,18.47
2019-04-05T03:19:11.856Z,14.50
2019-04-05T03:21:44.772Z,15.03
2019-04-05T03:24:19.366Z,17.97
2019-04-05T03:26:58.164Z,15.03
2019-04-05T03:29:26.897Z,16.23
2019-04-05T03:31:54.812Z,15.60
2019-04-05T03:34:22.592Z,14.60
2019-04-05T03:36:52.088Z,16.07
2019-04-05T03:39:22.156Z,16.00
2019-04-05T03:41:49.946Z,15.43
2019-04-05T03:44:17.740Z,15.07
2019-04-05T03:46:56.335Z,14.10
2019-04-05T03:49:15.198Z,16.67
2019-04-05T03:51:43.934Z,14.80
2019-04-05T03:54:12.148Z,17.50
2019-04-05T03:56:40.094Z,14.87
2019-04-05T03:59:08.094Z,17.57
2019-04-05T04:01:35.902Z,16.93
2019-04-05T04:04:03.963Z,17.13
2019-04-05T04:06:32.116Z,16.10
2019-04-05T04:08:59.990Z,18.00
2019-04-05T04:11:27.750Z,16.87
2019-04-05T04:13:55.646Z,15.37
2019-04-05T04:16:23.483Z,14.63
2019-04-05T04:18:51.399Z,18.50
2019-04-05T04:21:38.247Z,17.67
2019-04-05T04:24:07.821Z,20.57
2019-04-05T04:26:35.552Z,19.43
2019-04-05T04:29:03.326Z,19.00
2019-04-05T04:31:31.224Z,19.70
2019-04-05T04:34:01.930Z,25.47
2019-04-05T04:36:29.765Z,18.47
2019-04-05T04:38:57.441Z,16.10
2019-04-05T04:41:35.485Z,18.17
2019-04-05T04:44:03.431Z,15.17
2019-04-05T04:46:32.410Z,17.27
2019-04-05T04:49:00.792Z,19.20
2019-04-05T04:51:34.291Z,17.63
2019-04-05T04:54:02.735Z,23.50
2019-04-05T04:56:30.615Z,17.40
2019-04-05T04:59:00.126Z,19.53
2019-04-05T05:01:28.146Z,21.77
2019-04-05T05:03:58.123Z,15.23
2019-04-05T05:06:25.903Z,19.57
2019-04-05T05:08:53.798Z,18.63
2019-04-05T05:11:27.101Z,16.63
2019-04-05T05:13:55.378Z,17.07
2019-04-05T05:16:23.115Z,17.97
2019-04-05T05:18:51.206Z,18.20
2019-04-05T05:21:34.244Z,18.37
2019-04-05T05:24:21.691Z,15.93
2019-04-05T05:26:52.819Z,17.37
2019-04-05T05:29:23.787Z,16.33
2019-04-05T05:31:54.305Z,17.17
2019-04-05T05:34:22.152Z,22.07
2019-04-05T05:36:50.075Z,15.63
2019-04-05T05:39:18.337Z,17.17
2019-04-05T05:41:46.175Z,18.73
2019-04-05T05:44:13.949Z,17.57
2019-04-05T05:46:41.802Z,16.97
2019-04-05T05:49:09.573Z,15.43
2019-04-05T05:51:37.699Z,19.83
2019-04-05T05:54:05.518Z,16.03
2019-04-05T05:56:33.294Z,20.10
2019-04-05T05:59:01.079Z,19.07
2019-04-05T06:01:33.961Z,19.13
2019-04-05T06:04:02.845Z,14.03
2019-04-05T06:06:30.694Z,16.90
2019-04-05T06:08:58.473Z,16.90
2019-04-05T06:11:26.468Z,17.13
2019-04-05T06:13:54.262Z,16.47
2019-04-05T06:16:22.044Z,17.57
2019-04-05T06:18:49.787Z,15.77
2019-04-05T06:21:17.799Z,15.93
2019-04-05T06:23:45.593Z,19.40
2019-04-05T06:26:13.434Z,16.53
2019-04-05T06:28:41.376Z,15.97
2019-04-05T06:31:28.945Z,16.17
2019-04-05T06:33:56.691Z,14.80
2019-04-05T06:36:24.486Z,16.53
2019-04-05T06:38:52.240Z,15.77
2019-04-05T06:41:19.990Z,17.03
2019-04-05T06:43:47.868Z,14.83
2019-04-05T06:46:15.681Z,15.87
2019-04-05T06:48:43.546Z,16.57
2019-04-05T06:51:11.307Z,14.47
2019-04-05T06:53:39.328Z,15.50
2019-04-05T06:56:07.143Z,14.73
2019-04-05T06:58:34.955Z,15.90
2019-04-05T07:01:02.949Z,19.17
2019-04-05T07:03:30.738Z,18.83
2019-04-05T07:05:58.559Z,16.00
2019-04-05T07:08:26.355Z,15.43
2019-04-05T07:10:54.261Z,15.20
2019-04-05T07:13:22.124Z,14.47
2019-04-05T07:15:50.199Z,12.33
2019-04-05T07:18:31.550Z,14.97
2019-04-05T07:20:47.789Z,14.03
2019-04-05T07:23:15.553Z,17.13
2019-04-05T07:25:43.386Z,12.27
2019-04-05T07:28:11.108Z,11.57
2019-04-05T07:30:44.136Z,16.57
2019-04-05T07:33:12.386Z,13.83
2019-04-05T07:35:40.176Z,14.40
2019-04-05T07:38:09.774Z,15.60
2019-04-05T07:40:37.649Z,16.27
2019-04-05T07:43:05.425Z,23.03
2019-04-05T07:45:33.177Z,41.23
2019-04-05T07:48:01.002Z,15.17
2019-04-05T07:50:29.317Z,12.47
2019-04-05T07:52:57.107Z,11.57
2019-04-05T07:55:24.900Z,12.10
2019-04-05T07:57:52.642Z,13.03
2019-04-05T08:00:49.690Z,12.57
2019-04-05T08:03:17.569Z,10.63
2019-04-05T08:05:45.641Z,12.27
2019-04-05T08:09:02.157Z,11.63
2019-04-05T08:11:29.947Z,13.80
2019-04-05T08:14:00.245Z,10.63
2019-04-05T08:16:28.317Z,13.93
2019-04-05T08:18:58.398Z,12.73
2019-04-05T08:21:26.362Z,16.33
2019-04-05T08:23:54.152Z,10.83
2019-04-05T08:26:21.932Z,13.70
2019-04-05T08:28:49.710Z,10.67
2019-04-05T08:31:17.683Z,9.67
2019-04-05T08:33:45.410Z,9.53
2019-04-05T08:36:13.213Z,16.43
2019-04-05T08:38:41.033Z,15.90
2019-04-05T08:41:08.844Z,16.13
2019-04-05T08:43:36.570Z,17.53
2019-04-05T08:46:04.462Z,12.87
2019-04-05T08:48:33.025Z,11.40
2019-04-05T08:51:01.085Z,11.57
2019-04-05T08:53:28.872Z,11.57
2019-04-05T08:55:56.944Z,10.13
2019-04-05T08:58:33.294Z,9.57
2019-04-05T09:00:54.560Z,10.80
2019-04-05T09:03:22.278Z,8.27
2019-04-05T09:05:50.098Z,9.73
2019-04-05T09:08:17.884Z,11.00
2019-04-05T09:10:45.723Z,9.57
2019-04-05T09:13:13.498Z,9.07
2019-04-05T09:15:41.290Z,9.47
2019-04-05T09:18:09.064Z,8.90
2019-04-05T09:20:36.822Z,11.17
2019-04-05T09:23:04.579Z,9.17
2019-04-05T09:25:32.416Z,13.67
2019-04-05T09:28:00.177Z,9.20
2019-04-05T09:30:28.093Z,7.90
2019-04-05T09:32:55.869Z,10.60
2019-04-05T09:35:23.686Z,10.43
2019-04-05T09:37:51.425Z,9.70
2019-04-05T09:40:21.178Z,9.50
2019-04-05T09:42:48.921Z,10.50
2019-04-05T09:45:16.743Z,10.30
2019-04-05T09:47:44.530Z,11.03
2019-04-05T09:50:17.756Z,11.77
2019-04-05T09:52:45.592Z,12.20
2019-04-05T09:55:13.406Z,12.17
2019-04-05T09:57:41.186Z,15.33
2019-04-05T10:00:24.430Z,12.60
2019-04-05T10:02:52.189Z,14.43
2019-04-05T10:05:19.990Z,12.13
2019-04-05T10:07:54.950Z,10.67
2019-04-05T10:10:22.474Z,15.23
2019-04-05T10:12:50.233Z,16.10
2019-04-05T10:15:18.056Z,14.27
2019-04-05T10:17:45.772Z,13.43
2019-04-05T10:20:13.990Z,13.47
2019-04-05T10:22:42.833Z,15.57
2019-04-05T10:25:10.757Z,17.23
2019-04-05T10:27:38.522Z,14.70
2019-04-05T10:30:10.607Z,15.60
2019-04-05T10:32:38.468Z,14.33
2019-04-05T10:35:06.328Z,15.37
2019-04-05T10:37:34.903Z,17.70
2019-04-05T10:40:05.065Z,11.53
2019-04-05T10:42:34.903Z,13.53
2019-04-05T10:45:04.305Z,15.03
2019-04-05T10:47:32.158Z,13.30
2019-04-05T10:50:03.226Z,13.67
2019-04-05T10:52:29.857Z,13.57
2019-04-05T10:54:58.013Z,12.23
2019-04-05T10:57:26.117Z,14.77
2019-04-05T10:59:59.055Z,13.10
2019-04-05T11:02:26.856Z,14.60
2019-04-05T11:04:54.646Z,13.53
2019-04-05T11:07:22.419Z,14.03
2019-04-05T11:09:53.221Z,17.60
2019-04-05T11:12:20.805Z,12.97
2019-04-05T11:14:48.621Z,12.67
2019-04-05T11:17:16.398Z,12.80
2019-04-05T11:19:44.632Z,14.80
2019-04-05T11:22:12.535Z,13.93
2019-04-05T11:24:40.385Z,13.53
2019-04-05T11:27:08.202Z,12.90
2019-04-05T11:29:35.950Z,14.50
2019-04-05T11:32:03.845Z,11.60
2019-04-05T11:34:31.627Z,12.97
2019-04-05T11:37:02.658Z,13.47
2019-04-05T11:39:29.816Z,13.77
2019-04-05T11:41:58.328Z,14.47
2019-04-05T11:44:28.398Z,14.60
2019-04-05T11:46:56.312Z,15.17
2019-04-05T11:49:25.046Z,14.07
2019-04-05T11:51:53.700Z,11.47
2019-04-05T11:54:21.517Z,13.67
2019-04-05T11:56:49.294Z,14.10
2019-04-05T11:59:17.263Z,12.90
2019-04-05T12:01:53.899Z,13.13
2019-04-05T12:04:21.656Z,12.10
2019-04-05T12:06:51.848Z,13.10
2019-04-05T12:09:19.863Z,12.80
2019-04-05T12:11:47.881Z,13.40
2019-04-05T12:14:15.699Z,13.47
2019-04-05T12:16:43.594Z,12.67
2019-04-05T12:19:11.415Z,13.83
2019-04-05T12:21:39.318Z,12.97
2019-04-05T12:24:07.095Z,12.67
2019-04-05T12:26:35.226Z,12.17
2019-04-05T12:29:03.269Z,13.27
2019-04-05T12:31:31.118Z,13.07
2019-04-05T12:34:00.132Z,13.20
2019-04-05T12:36:28.342Z,12.77
2019-04-05T12:38:56.815Z,13.30
2019-04-05T12:41:24.915Z,14.63
2019-04-05T12:43:52.773Z,16.17
2019-04-05T12:46:20.617Z,12.87
2019-04-05T12:48:48.467Z,12.20
2019-04-05T12:51:32.099Z,14.40
2019-04-05T12:54:00.678Z,12.97
2019-04-05T12:56:28.508Z,12.60
2019-04-05T12:58:56.714Z,15.50
2019-04-05T13:01:25.105Z,12.83
2019-04-05T13:03:52.914Z,13.87
2019-04-05T13:06:21.737Z,13.60
2019-04-05T13:08:51.562Z,16.00
2019-04-05T13:11:34.739Z,15.00
2019-04-05T13:14:02.655Z,15.33
2019-04-05T13:16:30.440Z,17.03
2019-04-05T13:19:00.573Z,13.80
2019-04-05T13:21:32.095Z,12.30
2019-04-05T13:23:58.037Z,12.63
2019-04-05T13:26:26.455Z,13.20
2019-04-05T13:28:54.476Z,15.13
2019-04-05T13:31:27.278Z,13.87
2019-04-05T13:33:55.610Z,16.27
2019-04-05T13:36:23.712Z,13.80
2019-04-05T13:38:55.098Z,13.87
2019-04-05T13:41:37.158Z,14.73
2019-04-05T13:44:04.956Z,13.17
2019-04-05T13:46:32.775Z,16.50
2019-04-05T13:49:00.643Z,14.57
2019-04-05T13:51:31.707Z,15.57
2019-04-05T13:53:58.093Z,13.83
2019-04-05T13:56:25.999Z,14.53
2019-04-05T13:58:53.748Z,14.90
2019-04-05T14:01:21.516Z,13.70
2019-04-05T14:03:50.276Z,15.00
2019-04-05T14:06:19.008Z,16.00
2019-04-05T14:08:46.852Z,14.77
2019-04-05T14:11:14.697Z,12.67
2019-04-05T14:13:43.043Z,14.87
2019-04-05T14:16:12.508Z,12.40
2019-04-05T14:18:45.749Z,16.73
2019-04-05T14:21:10.614Z,13.93
2019-04-05T14:23:38.415Z,15.87
2019-04-05T14:26:06.223Z,15.60
2019-04-05T14:28:34.838Z,13.47
2019-04-05T14:31:03.631Z,14.20
2019-04-05T14:33:32.118Z,14.27
2019-04-05T14:35:59.974Z,16.33
2019-04-05T14:38:33.940Z,15.27
2019-04-05T14:41:02.110Z,18.17
2019-04-05T14:43:37.790Z,14.37
2019-04-05T14:46:11.859Z,15.00
2019-04-05T14:48:39.973Z,16.13
2019-04-05T14:51:14.269Z,17.37
2019-04-05T14:53:42.166Z,16.00
2019-04-05T14:56:10.043Z,15.37
2019-04-05T14:58:37.909Z,20.13
2019-04-05T15:01:17.581Z,19.97
2019-04-05T15:03:45.961Z,15.80
2019-04-05T15:06:14.169Z,16.93
2019-04-05T15:08:41.976Z,17.27
2019-04-05T15:11:11.198Z,17.20
2019-04-05T15:13:39.306Z,15.57
2019-04-05T15:16:07.137Z,16.10
2019-04-05T15:18:34.960Z,19.47
2019-04-05T15:21:05.475Z,15.27
2019-04-05T15:23:33.019Z,20.23
2019-04-05T15:26:01.525Z,20.83
2019-04-05T15:28:29.375Z,15.63
2019-04-05T15:30:57.396Z,16.90
2019-04-05T15:33:27.450Z,17.47
2019-04-05T15:35:58.039Z,15.60
2019-04-05T15:38:24.905Z,17.20
2019-04-05T15:40:58.073Z,18.90
2019-04-05T15:43:25.915Z,18.23
2019-04-05T15:45:54.041Z,19.37
2019-04-05T15:48:22.807Z,22.17
2019-04-05T15:50:51.949Z,21.40
2019-04-05T15:53:21.128Z,22.43
2019-04-05T15:55:48.943Z,17.63
2019-04-05T15:58:16.712Z,18.63
2019-04-05T16:00:44.789Z,18.00
2019-04-05T16:03:13.825Z,20.37
2019-04-05T16:05:43.037Z,18.40
2019-04-05T16:08:11.169Z,16.13
2019-04-05T16:10:39.052Z,19.43
2019-04-05T16:13:08.264Z,18.40
2019-04-05T16:15:36.225Z,18.00
2019-04-05T16:18:03.994Z,17.37
2019-04-05T16:20:32.081Z,19.17
2019-04-05T16:22:59.841Z,16.80
2019-04-05T16:25:27.932Z,18.77
2019-04-05T16:27:55.716Z,19.73
2019-04-05T16:30:25.854Z,20.00
2019-04-05T16:32:53.874Z,24.13
2019-04-05T16:35:29.232Z,20.23
2019-04-05T16:37:57.455Z,17.30
2019-04-05T16:40:52.272Z,21.80
2019-04-05T16:43:22.895Z,19.93
2019-04-05T16:45:52.090Z,18.60
2019-04-05T16:48:24.797Z,19.20
2019-04-05T16:50:53.440Z,20.27
2019-04-05T16:53:21.223Z,19.03
2019-04-05T16:55:49.044Z,19.30
2019-04-05T16:58:16.847Z,18.17
2019-04-05T17:00:45.734Z,16.53
2019-04-05T17:03:13.612Z,18.70
2019-04-05T17:05:41.411Z,23.07
2019-04-05T17:08:09.283Z,20.43
2019-04-05T17:10:42.261Z,22.40
2019-04-05T17:13:10.157Z,34.07
2019-04-05T17:15:37.945Z,35.83
2019-04-05T17:18:05.967Z,35.73
2019-04-05T17:20:34.004Z,25.87
2019-04-05T17:23:01.834Z,21.43
2019-04-05T17:25:29.672Z,24.47
2019-04-05T17:27:57.631Z,20.93
2019-04-05T17:30:25.493Z,25.23
2019-04-05T17:32:53.263Z,26.50
2019-04-05T17:35:21.082Z,29.17
2019-04-05T17:37:48.926Z,25.93
2019-04-05T17:40:16.741Z,21.17
2019-04-05T17:42:44.723Z,21.17
2019-04-05T17:45:15.458Z,19.97
2019-04-05T17:47:44.720Z,19.17
2019-04-05T17:50:32.880Z,24.40
2019-04-05T17:53:11.250Z,30.47
2019-04-05T17:55:30.961Z,33.87
2019-04-05T17:57:59.430Z,32.73
2019-04-05T18:00:27.335Z,26.10
2019-04-05T18:02:55.107Z,22.60
2019-04-05T18:05:23.072Z,24.03
2019-04-05T18:07:50.880Z,21.57
2019-04-05T18:10:18.774Z,30.67
2019-04-05T18:12:46.728Z,28.00
2019-04-05T18:15:14.715Z,28.57
2019-04-05T18:17:42.569Z,34.27
2019-04-05T18:20:10.754Z,41.03
2019-04-05T18:22:38.558Z,29.50
2019-04-05T18:25:06.734Z,24.73
2019-04-05T18:27:34.655Z,29.73
2019-04-05T18:30:02.892Z,31.43
2019-04-05T18:32:31.385Z,26.07
2019-04-05T18:34:59.774Z,20.63
2019-04-05T18:37:27.615Z,28.53
2019-04-05T18:39:55.527Z,29.47
2019-04-05T18:42:23.435Z,27.70
2019-04-05T18:44:51.636Z,25.93
2019-04-05T18:47:19.598Z,29.47
2019-04-05T18:50:03.150Z,31.73
2019-04-05T18:52:27.467Z,34.00
2019-04-05T18:54:55.817Z,31.73
2019-04-05T18:57:24.224Z,28.53
2019-04-05T18:59:52.430Z,30.80
2019-04-05T19:02:20.836Z,27.40
2019-04-05T19:04:49.257Z,30.33
2019-04-05T19:07:17.690Z,34.70
2019-04-05T19:09:46.286Z,36.07
2019-04-05T19:12:14.396Z,32.60
2019-04-05T19:14:42.305Z,27.83
2019-04-05T19:17:22.803Z,24.60
2019-04-05T19:19:40.139Z,22.67
2019-04-05T19:22:08.100Z,19.90
2019-04-05T19:24:35.858Z,23.47
2019-04-05T19:27:04.013Z,23.23
2019-04-05T19:29:31.881Z,20.83
2019-04-05T19:49:28.332Z,24.37
2019-04-05T19:51:56.220Z,24.47
2019-04-05T19:54:26.356Z,19.63
2019-04-05T19:56:53.935Z,22.30
2019-04-05T19:59:21.727Z,22.30
2019-04-05T20:01:49.618Z,28.93
2019-04-05T20:04:17.426Z,19.07
2019-04-05T20:06:45.283Z,21.10
2019-04-05T20:09:13.262Z,23.47
2019-04-05T20:11:41.647Z,19.27
2019-04-05T20:14:09.507Z,25.00
2019-04-05T20:16:37.407Z,28.20
2019-04-05T20:19:05.297Z,24.43
2019-04-05T20:21:33.277Z,23.93
2019-04-05T20:24:09.389Z,30.63
2019-04-05T20:26:30.882Z,36.13
2019-04-05T20:28:58.789Z,35.87
2019-04-05T20:31:26.588Z,25.83
2019-04-05T20:33:54.462Z,23.03
2019-04-05T20:36:22.392Z,25.77
2019-04-05T20:38:50.337Z,22.63
2019-04-05T20:41:23.282Z,23.70
2019-04-05T20:43:51.281Z,22.93
2019-04-05T20:46:19.276Z,27.67
2019-04-05T20:48:47.179Z,30.07
2019-04-05T20:51:20.010Z,25.60
2019-04-05T20:53:47.815Z,23.80
2019-04-05T20:56:15.662Z,24.10
2019-04-05T20:58:43.445Z,26.73
2019-04-05T21:01:16.320Z,30.00
2019-04-05T21:03:44.166Z,30.47
2019-04-05T21:06:11.966Z,29.77
2019-04-05T21:08:39.693Z,45.47
2019-04-05T21:11:07.610Z,36.93
2019-04-05T21:13:35.479Z,29.87
2019-04-05T21:16:03.243Z,30.80
2019-04-05T21:18:31.039Z,28.13
2019-04-05T21:20:58.891Z,26.97
2019-04-05T21:23:26.695Z,22.67
2019-04-05T21:25:54.806Z,26.97
2019-04-05T21:28:22.590Z,26.37
2019-04-05T21:30:50.379Z,28.13
2019-04-05T21:33:18.155Z,25.00
2019-04-05T21:35:46.283Z,21.73
2019-04-05T21:38:14.340Z,22.37
2019-04-05T21:40:42.163Z,22.63
2019-04-05T21:43:10.231Z,21.93
2019-04-05T21:45:38.084Z,23.77
2019-04-05T21:48:05.933Z,25.57
2019-04-05T21:50:34.551Z,23.30
2019-04-05T21:53:02.334Z,26.03
2019-04-05T21:55:30.154Z,19.67
2019-04-05T21:57:58.464Z,19.10
2019-04-05T22:00:32.984Z,24.70
2019-04-05T22:03:00.811Z,21.70
2019-04-05T22:05:28.632Z,19.00
2019-04-05T22:07:56.461Z,20.60
2019-04-05T22:10:24.190Z,23.20
2019-04-05T22:12:52.212Z,22.53
2019-04-05T22:15:20.020Z,19.63
2019-04-05T22:17:47.854Z,23.00
2019-04-05T22:20:15.904Z,23.13
2019-04-05T22:22:43.673Z,21.07
2019-04-05T22:25:11.442Z,23.03
2019-04-05T22:27:39.205Z,23.47
2019-04-05T22:30:11.406Z,26.07
2019-04-05T22:32:39.202Z,22.43
2019-04-05T22:35:07.166Z,27.37
2019-04-05T22:37:34.956Z,21.10
2019-04-05T22:40:33.560Z,26.83
2019-04-05T22:43:01.909Z,23.17
2019-04-05T22:45:29.745Z,21.07
2019-04-05T22:47:57.486Z,27.37
2019-04-05T22:50:28.435Z,25.17
2019-04-05T22:52:56.151Z,20.93
2019-04-05T22:55:23.926Z,20.70
2019-04-05T22:57:51.985Z,22.77
2019-04-05T23:00:20.079Z,19.47
2019-04-05T23:02:47.916Z,22.60
2019-04-05T23:05:15.668Z,21.13
2019-04-05T23:07:43.489Z,20.07
2019-04-05T23:10:11.876Z,21.27
2019-04-05T23:12:39.800Z,18.70
2019-04-05T23:15:08.202Z,19.33
2019-04-05T23:17:35.931Z,23.60
2019-04-05T23:20:04.081Z,19.23
2019-04-05T23:22:31.899Z,38.30
2019-04-05T23:24:59.687Z,40.27
2019-04-05T23:27:27.467Z,29.73
2019-04-05T23:29:55.617Z,25.63
2019-04-05T23:32:23.459Z,24.30
2019-04-05T23:34:51.227Z,21.37
2019-04-05T23:37:19.011Z,22.63
2019-04-05T23:39:46.802Z,24.60
2019-04-05T23:42:14.875Z,21.83
2019-04-05T23:44:42.645Z,19.63
2019-04-05T23:47:10.426Z,18.27
2019-04-05T23:49:38.368Z,20.53
2019-04-05T23:52:06.120Z,25.23
2019-04-05T23:54:33.909Z,19.87
2019-04-05T23:57:01.686Z,19.20
2019-04-05T23:59:29.447Z,23.03
